Time;durP1;ratioP1;P1;durP2;ratioP2;P2;SDS_P1;SDS_P2;PMS_P1;PMS_P2;Temp;Humidity;BMP_temperature;BMP_pressure;BME280_temperature;BME280_humidity;BME280_pressure;Samples;Min_cycle;Max_cycle;Signal;HPM_P1;HPM_P2
2024/02/03 00:00:14;;;;;;;;;;;22.10;33.90;;;;;;5075232;28;20377;-52
2024/02/03 00:02:41;;;;;;;;;;;22.10;33.90;;;;;;5075364;28;19935;-51
2024/02/03 00:05:08;;;;;;;;;;;22.10;33.90;;;;;;5065220;28;19932;-53
2024/02/03 00:07:35;;;;;;;;;;;22.10;33.90;;;;;;5055012;28;20437;-46
2024/02/03 00:10:02;;;;;;;;;;;22.10;33.90;;;;;;5054025;28;20377;-52
2024/02/03 00:12:29;;;;;;;;;;;22.10;33.90;;;;;;5054810;28;20392;-50
2024/02/03 00:14:56;;;;;;;;;;;22.10;33.90;;;;;;5055092;28;20402;-48
2024/02/03 00:17:23;;;;;;;;;;;22.10;33.90;;;;;;5055003;28;19924;-47
2024/02/03 00:19:53;;;;;;;;;;;22.10;34.00;;;;;;5054805;28;19925;-48
2024/02/03 00:22:21;;;;;;;;;;;22.10;34.00;;;;;;5054664;28;19925;-49
2024/02/03 00:24:48;;;;;;;;;;;22.00;34.00;;;;;;5055076;28;20015;-49
2024/02/03 00:27:15;;;;;;;;;;;22.10;34.00;;;;;;5054717;28;19951;-48
2024/02/03 00:29:42;;;;;;;;;;;22.00;34.00;;;;;;5055010;28;19924;-50
2024/02/03 00:32:09;;;;;;;;;;;22.00;34.00;;;;;;5054937;28;19971;-46
2024/02/03 00:34:36;;;;;;;;;;;22.00;34.00;;;;;;5053284;28;19935;-52
2024/02/03 00:37:03;;;;;;;;;;;22.00;33.90;;;;;;5054746;28;19924;-46
2024/02/03 00:39:30;;;;;;;;;;;22.00;34.00;;;;;;5054564;28;19925;-51
2024/02/03 00:41:57;;;;;;;;;;;22.00;34.00;;;;;;5054137;28;20019;-53
2024/02/03 00:44:24;;;;;;;;;;;22.00;34.00;;;;;;5054340;28;19925;-53
2024/02/03 00:46:51;;;;;;;;;;;22.00;34.00;;;;;;5054534;28;19939;-46
2024/02/03 00:49:18;;;;;;;;;;;22.00;34.00;;;;;;5054348;28;19979;-46
2024/02/03 00:51:45;;;;;;;;;;;22.00;34.00;;;;;;5054572;28;19971;-48
2024/02/03 00:54:13;;;;;;;;;;;22.00;34.00;;;;;;5054452;28;19935;-50
2024/02/03 00:56:40;;;;;;;;;;;22.00;34.00;;;;;;5054255;28;19924;-52
2024/02/03 00:59:07;;;;;;;;;;;22.00;34.00;;;;;;5054171;28;19936;-48
2024/02/03 01:01:34;;;;;;;;;;;22.00;34.60;;;;;;5054494;28;20012;-52
2024/02/03 01:04:00;;;;;;;;;;;22.00;34.00;;;;;;5054020;28;20281;-48
2024/02/03 01:06:28;;;;;;;;;;;22.00;34.00;;;;;;5054300;28;20337;-53
2024/02/03 01:08:55;;;;;;;;;;;22.00;34.00;;;;;;5053995;28;19932;-50
2024/02/03 01:11:22;;;;;;;;;;;22.00;34.00;;;;;;5054172;28;20019;-53
2024/02/03 01:13:49;;;;;;;;;;;22.00;34.00;;;;;;5054099;28;20293;-46
2024/02/03 01:16:16;;;;;;;;;;;22.00;34.10;;;;;;5067690;28;19924;-58
2024/02/03 01:18:43;;;;;;;;;;;22.00;34.10;;;;;;5073991;28;19947;-55
2024/02/03 01:21:17;;;;;;;;;;;22.00;34.10;;;;;;5073669;28;19928;-52
2024/02/03 01:23:44;;;;;;;;;;;21.90;34.00;;;;;;5073506;28;19963;-53
2024/02/03 01:26:11;;;;;;;;;;;21.90;34.00;;;;;;5073938;28;19991;-54
2024/02/03 01:28:38;;;;;;;;;;;21.90;34.00;;;;;;5073706;28;19925;-53
2024/02/03 01:31:05;;;;;;;;;;;21.90;34.10;;;;;;5073313;28;19932;-50
2024/02/03 01:33:32;;;;;;;;;;;21.90;34.10;;;;;;5055762;28;20382;-52
2024/02/03 01:35:59;;;;;;;;;;;21.90;34.10;;;;;;5073506;28;19975;-52
2024/02/03 01:38:26;;;;;;;;;;;21.90;34.10;;;;;;5073643;28;20415;-51
2024/02/03 01:40:53;;;;;;;;;;;21.90;34.10;;;;;;5073530;28;19924;-52
2024/02/03 01:43:20;;;;;;;;;;;21.90;34.10;;;;;;5073387;28;19925;-48
2024/02/03 01:45:47;;;;;;;;;;;21.90;34.10;;;;;;5073205;28;19970;-48
2024/02/03 01:48:15;;;;;;;;;;;21.90;34.10;;;;;;5073576;28;19924;-51
2024/02/03 01:50:48;;;;;;;;;;;21.90;34.10;;;;;;5073134;28;20011;-52
2024/02/03 01:53:16;;;;;;;;;;;21.90;34.10;;;;;;5073285;28;20457;-51
2024/02/03 01:55:43;;;;;;;;;;;21.90;34.10;;;;;;5073264;28;20019;-46
2024/02/03 01:58:10;;;;;;;;;;;21.90;34.10;;;;;;5073214;28;19982;-47
2024/02/03 02:00:37;;;;;;;;;;;21.90;34.00;;;;;;5072775;28;19977;-46
2024/02/03 02:03:05;;;;;;;;;;;21.90;34.00;;;;;;5073496;28;19932;-49
2024/02/03 02:05:32;;;;;;;;;;;21.90;34.10;;;;;;5073410;28;20332;-48
2024/02/03 02:07:59;;;;;;;;;;;21.90;34.10;;;;;;5055622;28;19928;-52
2024/02/03 02:10:26;;;;;;;;;;;21.90;34.10;;;;;;5072803;28;19928;-48
2024/02/03 02:12:53;;;;;;;;;;;21.90;34.10;;;;;;5073095;28;20378;-48
2024/02/03 02:15:20;;;;;;;;;;;21.90;34.10;;;;;;5073461;28;19924;-45
2024/02/03 02:17:47;;;;;;;;;;;21.90;34.10;;;;;;5072911;28;19925;-45
2024/02/03 02:20:14;;;;;;;;;;;21.90;34.10;;;;;;5072899;28;19951;-45
2024/02/03 02:22:41;;;;;;;;;;;21.90;34.10;;;;;;5072987;28;20293;-47
2024/02/03 02:25:08;;;;;;;;;;;21.90;34.10;;;;;;5072924;28;19928;-48
2024/02/03 02:27:35;;;;;;;;;;;21.90;34.10;;;;;;5072838;28;19925;-48
2024/02/03 02:30:02;;;;;;;;;;;21.90;34.10;;;;;;5072763;28;19943;-48
2024/02/03 02:32:29;;;;;;;;;;;21.90;34.10;;;;;;5072618;28;19972;-48
2024/02/03 02:34:56;;;;;;;;;;;21.90;34.10;;;;;;5072555;28;19924;-48
2024/02/03 02:37:23;;;;;;;;;;;21.90;34.10;;;;;;5072762;28;19924;-46
2024/02/03 02:39:50;;;;;;;;;;;21.80;34.10;;;;;;5073122;28;19970;-47
2024/02/03 02:42:18;;;;;;;;;;;21.90;34.10;;;;;;5072544;28;19925;-46
2024/02/03 02:44:45;;;;;;;;;;;21.80;34.00;;;;;;5072594;28;19924;-46
2024/02/03 02:47:12;;;;;;;;;;;21.80;34.00;;;;;;5072739;28;20012;-47
2024/02/03 02:49:39;;;;;;;;;;;21.80;34.10;;;;;;5072457;28;19924;-49
2024/02/03 02:52:06;;;;;;;;;;;21.80;34.10;;;;;;5072992;28;20030;-47
2024/02/03 02:54:33;;;;;;;;;;;21.80;34.10;;;;;;5072588;28;19925;-46
2024/02/03 02:57:00;;;;;;;;;;;21.80;34.10;;;;;;5072989;28;19931;-46
2024/02/03 02:59:27;;;;;;;;;;;21.80;34.10;;;;;;5076241;28;19924;-47
2024/02/03 03:01:54;;;;;;;;;;;21.80;34.10;;;;;;5076325;28;20015;-49
2024/02/03 03:04:21;;;;;;;;;;;21.80;34.10;;;;;;5076441;28;19925;-47
2024/02/03 03:06:48;;;;;;;;;;;21.80;34.10;;;;;;5076388;28;19924;-51
2024/02/03 03:09:16;;;;;;;;;;;21.80;34.10;;;;;;5076400;28;20015;-48
2024/02/03 03:11:43;;;;;;;;;;;21.80;34.10;;;;;;5076564;28;19928;-54
2024/02/03 03:14:11;;;;;;;;;;;21.80;34.60;;;;;;5076426;28;20361;-52
2024/02/03 03:16:38;;;;;;;;;;;21.80;34.10;;;;;;5076050;28;19925;-54
2024/02/03 03:19:04;;;;;;;;;;;21.80;34.10;;;;;;5076110;28;19929;-51
2024/02/03 03:21:32;;;;;;;;;;;21.80;34.10;;;;;;5076260;28;19924;-53
2024/02/03 03:23:59;;;;;;;;;;;21.80;34.10;;;;;;5076291;28;19928;-51
2024/02/03 03:26:26;;;;;;;;;;;21.80;34.10;;;;;;5075703;28;20332;-50
2024/02/03 03:28:53;;;;;;;;;;;21.80;34.10;;;;;;5076068;28;20012;-51
2024/02/03 03:31:19;;;;;;;;;;;21.80;34.70;;;;;;5076322;28;19967;-50
2024/02/03 03:33:46;;;;;;;;;;;21.80;34.10;;;;;;5075710;28;19928;-50
2024/02/03 03:36:14;;;;;;;;;;;21.80;34.10;;;;;;5075364;28;20285;-51
2024/02/03 03:38:44;;;;;;;;;;;21.80;34.10;;;;;;5075093;28;19961;-48
2024/02/03 03:41:11;;;;;;;;;;;21.80;34.20;;;;;;5075288;28;20435;-49
2024/02/03 03:43:38;;;;;;;;;;;21.80;34.20;;;;;;5075656;28;19939;-50
2024/02/03 03:46:07;;;;;;;;;;;21.80;34.20;;;;;;5075539;28;20015;-51
2024/02/03 03:48:34;;;;;;;;;;;21.80;34.20;;;;;;5057943;28;20040;-52
2024/02/03 03:51:02;;;;;;;;;;;21.80;34.20;;;;;;5075618;28;19932;-51
2024/02/03 03:53:29;;;;;;;;;;;21.70;34.10;;;;;;5075824;28;19936;-51
2024/02/03 03:55:55;;;;;;;;;;;21.70;34.20;;;;;;5075718;28;20267;-47
2024/02/03 03:58:22;;;;;;;;;;;21.70;34.10;;;;;;5075163;28;20441;-48
2024/02/03 04:00:49;;;;;;;;;;;21.80;34.20;;;;;;5075300;28;20390;-47
2024/02/03 04:03:16;;;;;;;;;;;21.70;34.10;;;;;;5075609;28;19924;-46
2024/02/03 04:05:46;;;;;;;;;;;21.70;34.10;;;;;;5074983;28;20425;-47
2024/02/03 04:08:13;;;;;;;;;;;21.70;34.10;;;;;;5075097;28;20095;-49
2024/02/03 04:10:40;;;;;;;;;;;21.70;34.10;;;;;;5074934;28;19986;-51
2024/02/03 04:13:07;;;;;;;;;;;21.70;34.10;;;;;;5075404;28;19925;-46
2024/02/03 04:15:34;;;;;;;;;;;21.70;34.10;;;;;;5075303;28;19924;-46
2024/02/03 04:18:03;;;;;;;;;;;21.70;34.10;;;;;;5075229;28;19928;-46
2024/02/03 04:20:30;;;;;;;;;;;21.70;34.10;;;;;;5074768;28;19950;-46
2024/02/03 04:22:57;;;;;;;;;;;21.70;34.10;;;;;;5074872;28;19929;-46
2024/02/03 04:25:24;;;;;;;;;;;21.70;34.10;;;;;;5074662;28;19936;-49
2024/02/03 04:27:50;;;;;;;;;;;21.70;34.10;;;;;;5075093;28;19929;-52
2024/02/03 04:30:19;;;;;;;;;;;21.70;34.10;;;;;;5074732;28;20382;-48
2024/02/03 04:32:51;;;;;;;;;;;21.70;34.10;;;;;;5074592;28;19931;-46
2024/02/03 04:35:18;;;;;;;;;;;21.70;34.20;;;;;;5074851;28;19931;-46
2024/02/03 04:37:46;;;;;;;;;;;21.70;34.20;;;;;;5056777;28;20393;-46
2024/02/03 04:40:13;;;;;;;;;;;21.70;33.90;;;;;;5074587;28;19925;-47
2024/02/03 04:42:39;;;;;;;;;;;21.70;33.70;;;;;;5074389;28;19931;-47
2024/02/03 04:45:07;;;;;;;;;;;21.70;33.50;;;;;;5074404;28;19925;-52
2024/02/03 04:47:34;;;;;;;;;;;21.70;33.30;;;;;;5074726;28;20019;-47
2024/02/03 04:50:01;;;;;;;;;;;21.70;33.20;;;;;;5074865;28;19931;-52
2024/02/03 04:52:31;;;;;;;;;;;21.80;33.10;;;;;;5074062;28;20385;-50
2024/02/03 04:54:58;;;;;;;;;;;21.70;33.00;;;;;;5074231;28;19924;-49
2024/02/03 04:57:25;;;;;;;;;;;21.70;32.90;;;;;;5074424;28;19970;-53
2024/02/03 04:59:51;;;;;;;;;;;21.70;32.90;;;;;;5074386;28;19932;-53
2024/02/03 05:02:18;;;;;;;;;;;21.70;32.80;;;;;;5074197;28;19928;-54
2024/02/03 05:04:45;;;;;;;;;;;21.70;32.80;;;;;;5074029;28;20332;-54
2024/02/03 05:07:12;;;;;;;;;;;21.70;32.70;;;;;;5073847;28;19925;-49
2024/02/03 05:09:39;;;;;;;;;;;21.70;32.70;;;;;;5074351;28;19932;-52
2024/02/03 05:12:06;;;;;;;;;;;21.70;32.70;;;;;;5074082;28;19924;-51
2024/02/03 05:14:34;;;;;;;;;;;21.70;32.60;;;;;;5073776;28;20409;-47
2024/02/03 05:17:01;;;;;;;;;;;21.70;32.60;;;;;;5073646;28;20325;-49
2024/02/03 05:19:28;;;;;;;;;;;21.70;32.60;;;;;;5074045;28;19924;-47
2024/02/03 05:21:55;;;;;;;;;;;21.70;32.60;;;;;;5073100;28;20320;-46
2024/02/03 05:24:22;;;;;;;;;;;21.70;32.50;;;;;;5073818;28;19928;-45
2024/02/03 05:26:49;;;;;;;;;;;21.70;32.50;;;;;;5073782;28;19928;-48
2024/02/03 05:29:16;;;;;;;;;;;21.70;32.50;;;;;;5073543;28;20386;-48
2024/02/03 05:31:44;;;;;;;;;;;21.70;32.50;;;;;;5073677;28;20011;-49
2024/02/03 05:34:11;;;;;;;;;;;21.70;32.40;;;;;;5073408;28;19924;-45
2024/02/03 05:36:38;;;;;;;;;;;21.70;32.40;;;;;;5073397;28;19964;-49
2024/02/03 05:39:06;;;;;;;;;;;21.70;32.40;;;;;;5073418;28;19964;-46
2024/02/03 05:41:34;;;;;;;;;;;21.70;32.40;;;;;;5073652;28;20019;-46
2024/02/03 05:44:01;;;;;;;;;;;21.70;32.50;;;;;;5073259;28;19924;-47
2024/02/03 05:46:28;;;;;;;;;;;21.70;32.40;;;;;;5072985;28;20007;-49
2024/02/03 05:48:55;;;;;;;;;;;21.70;32.40;;;;;;5072560;28;20416;-47
2024/02/03 05:51:22;;;;;;;;;;;21.70;32.30;;;;;;5054120;28;20011;-45
2024/02/03 05:53:50;;;;;;;;;;;21.70;32.30;;;;;;5073155;28;19928;-49
2024/02/03 05:56:17;;;;;;;;;;;21.70;32.30;;;;;;5073142;28;19924;-52
2024/02/03 05:58:44;;;;;;;;;;;21.70;32.30;;;;;;5073000;28;20007;-49
2024/02/03 06:01:11;;;;;;;;;;;21.60;32.20;;;;;;5072960;28;20027;-52
2024/02/03 06:03:38;;;;;;;;;;;21.70;32.10;;;;;;5073140;28;19978;-49
2024/02/03 06:06:05;;;;;;;;;;;21.70;32.10;;;;;;5073283;28;19971;-49
2024/02/03 06:08:51;;;;;;;;;;;21.70;32.10;;;;;;5073054;28;19964;-46
2024/02/03 06:11:18;;;;;;;;;;;21.70;32.00;;;;;;5072889;28;20278;-47
2024/02/03 06:13:45;;;;;;;;;;;21.70;32.00;;;;;;5073446;28;19924;-47
2024/02/03 06:16:12;;;;;;;;;;;21.70;31.90;;;;;;5073358;28;19924;-50
2024/02/03 06:18:39;;;;;;;;;;;21.70;32.00;;;;;;5073091;28;19987;-49
2024/02/03 06:21:06;;;;;;;;;;;21.70;31.80;;;;;;5073164;28;19924;-48
2024/02/03 06:23:33;;;;;;;;;;;21.80;31.80;;;;;;5073007;28;19925;-46
2024/02/03 06:26:00;;;;;;;;;;;21.70;31.70;;;;;;5072702;28;19972;-46
2024/02/03 06:28:27;;;;;;;;;;;21.80;31.70;;;;;;5054991;28;20392;-49
2024/02/03 06:30:54;;;;;;;;;;;21.70;31.60;;;;;;5072871;28;19978;-51
2024/02/03 06:33:21;;;;;;;;;;;21.80;31.60;;;;;;5076284;28;20369;-48
2024/02/03 06:35:48;;;;;;;;;;;21.80;31.60;;;;;;5075202;28;19959;-50
2024/02/03 06:38:15;;;;;;;;;;;21.80;31.50;;;;;;5072043;28;19932;-46
2024/02/03 06:40:42;;;;;;;;;;;21.80;31.50;;;;;;5064989;28;19924;-48
2024/02/03 06:43:09;;;;;;;;;;;21.80;31.50;;;;;;5076626;28;19958;-53
2024/02/03 06:45:36;;;;;;;;;;;21.80;31.40;;;;;;5076717;28;19971;-55
2024/02/03 06:48:03;;;;;;;;;;;21.80;31.40;;;;;;5075710;28;19924;-53
2024/02/03 06:50:30;;;;;;;;;;;21.80;31.30;;;;;;5076787;28;19928;-50
2024/02/03 06:53:00;;;;;;;;;;;21.90;31.40;;;;;;5075906;28;19928;-47
2024/02/03 06:55:27;;;;;;;;;;;21.90;31.40;;;;;;5073966;28;19932;-49
2024/02/03 06:57:54;;;;;;;;;;;21.80;31.30;;;;;;5073200;28;19930;-47
2024/02/03 07:00:21;;;;;;;;;;;21.90;31.30;;;;;;5076019;28;19970;-48
2024/02/03 07:02:48;;;;;;;;;;;21.90;31.30;;;;;;5075597;28;19925;-48
2024/02/03 07:05:15;;;;;;;;;;;21.90;31.30;;;;;;5076178;28;20023;-52
2024/02/03 07:07:42;;;;;;;;;;;21.90;31.20;;;;;;5070128;28;19931;-48
2024/02/03 07:10:09;;;;;;;;;;;21.90;31.20;;;;;;5066344;28;20385;-47
2024/02/03 07:12:36;;;;;;;;;;;21.90;31.20;;;;;;5075199;28;19943;-49
2024/02/03 07:15:03;;;;;;;;;;;22.00;31.20;;;;;;5075499;28;20431;-46
2024/02/03 07:17:30;;;;;;;;;;;22.00;31.10;;;;;;5075802;28;19990;-48
2024/02/03 07:19:57;;;;;;;;;;;22.00;31.10;;;;;;5075823;28;19924;-49
2024/02/03 07:22:24;;;;;;;;;;;22.00;31.10;;;;;;5075734;28;19932;-48
2024/02/03 07:24:50;;;;;;;;;;;22.00;31.10;;;;;;5072395;28;19928;-48
2024/02/03 07:27:18;;;;;;;;;;;22.00;31.10;;;;;;5073846;28;19925;-48
2024/02/03 07:29:45;;;;;;;;;;;22.00;31.00;;;;;;5075322;28;19925;-48
2024/02/03 07:32:12;;;;;;;;;;;22.00;31.00;;;;;;5073346;28;19925;-51
2024/02/03 07:34:41;;;;;;;;;;;22.10;31.00;;;;;;5072506;28;19924;-50
2024/02/03 07:37:08;;;;;;;;;;;22.10;31.00;;;;;;5074703;28;19924;-51
2024/02/03 07:39:35;;;;;;;;;;;22.10;31.00;;;;;;5051494;28;19932;-51
2024/02/03 07:42:03;;;;;;;;;;;22.10;31.00;;;;;;5071645;28;20308;-53
2024/02/03 07:44:31;;;;;;;;;;;22.10;30.90;;;;;;5071891;28;19932;-51
2024/02/03 07:46:59;;;;;;;;;;;22.10;30.90;;;;;;5074920;28;19925;-53
2024/02/03 07:49:26;;;;;;;;;;;22.20;31.00;;;;;;5075348;28;19924;-47
2024/02/03 07:51:53;;;;;;;;;;;22.10;30.90;;;;;;5074797;28;19924;-49
2024/02/03 07:54:21;;;;;;;;;;;22.20;31.00;;;;;;5073789;28;19928;-50
2024/02/03 07:56:48;;;;;;;;;;;22.20;31.00;;;;;;5074383;28;19932;-46
2024/02/03 07:59:15;;;;;;;;;;;22.20;31.00;;;;;;5072711;28;19978;-48
2024/02/03 08:01:42;;;;;;;;;;;22.20;30.90;;;;;;5074502;28;20349;-48
2024/02/03 08:04:11;;;;;;;;;;;22.30;30.90;;;;;;5072780;28;20550;-51
2024/02/03 08:06:38;;;;;;;;;;;22.30;31.00;;;;;;5073960;28;19928;-51
2024/02/03 08:09:06;;;;;;;;;;;22.30;30.80;;;;;;5072662;28;19928;-46
2024/02/03 08:11:34;;;;;;;;;;;22.40;30.80;;;;;;5074541;28;19928;-47
2024/02/03 08:14:00;;;;;;;;;;;22.40;30.80;;;;;;5073795;28;20257;-46
2024/02/03 08:16:27;;;;;;;;;;;22.40;30.80;;;;;;5074432;28;19924;-52
2024/02/03 08:18:54;;;;;;;;;;;22.40;30.80;;;;;;5074180;28;20381;-51
2024/02/03 08:21:21;;;;;;;;;;;22.40;30.80;;;;;;5074646;28;19935;-53
2024/02/03 08:23:48;;;;;;;;;;;22.50;30.80;;;;;;5073681;28;20372;-53
2024/02/03 08:26:15;;;;;;;;;;;22.50;30.80;;;;;;5074343;28;19960;-47
2024/02/03 08:28:42;;;;;;;;;;;22.50;30.80;;;;;;5074057;28;20022;-47
2024/02/03 08:31:10;;;;;;;;;;;22.50;30.80;;;;;;5073942;28;19931;-46
2024/02/03 08:33:37;;;;;;;;;;;22.50;30.70;;;;;;5071413;28;19977;-48
2024/02/03 08:36:04;;;;;;;;;;;22.50;30.70;;;;;;5073952;28;19924;-46
2024/02/03 08:38:34;;;;;;;;;;;22.50;30.70;;;;;;5073430;28;19924;-45
2024/02/03 08:41:01;;;;;;;;;;;22.50;30.70;;;;;;5073976;28;19998;-47
2024/02/03 08:43:28;;;;;;;;;;;22.60;30.80;;;;;;5073735;28;20002;-50
2024/02/03 08:45:55;;;;;;;;;;;22.60;30.80;;;;;;5071260;28;20377;-54
2024/02/03 08:48:22;;;;;;;;;;;22.60;30.80;;;;;;5074124;28;19924;-54
2024/02/03 08:50:49;;;;;;;;;;;22.60;30.90;;;;;;5073716;28;20312;-54
2024/02/03 08:53:16;;;;;;;;;;;22.60;30.90;;;;;;5070877;28;19968;-51
2024/02/03 08:55:43;;;;;;;;;;;22.70;30.90;;;;;;5072577;28;20382;-50
2024/02/03 08:58:10;;;;;;;;;;;22.60;30.90;;;;;;5073456;28;20006;-52
2024/02/03 09:00:37;;;;;;;;;;;22.70;31.00;;;;;;5069742;28;19974;-50
2024/02/03 09:03:04;;;;;;;;;;;22.70;31.00;;;;;;5071306;28;19929;-51
2024/02/03 09:05:31;;;;;;;;;;;22.70;31.00;;;;;;5073808;28;19936;-52
2024/02/03 09:07:58;;;;;;;;;;;22.80;31.10;;;;;;5073205;28;19925;-50
2024/02/03 09:10:25;;;;;;;;;;;22.80;31.10;;;;;;5073381;28;20013;-53
2024/02/03 09:12:52;;;;;;;;;;;22.90;31.00;;;;;;5055453;28;19936;-47
2024/02/03 09:15:19;;;;;;;;;;;22.90;31.00;;;;;;5055724;28;19932;-50
2024/02/03 09:17:48;;;;;;;;;;;23.00;31.00;;;;;;5073477;28;19977;-47
2024/02/03 09:20:15;;;;;;;;;;;23.00;31.00;;;;;;5073393;28;19924;-50
2024/02/03 09:22:43;;;;;;;;;;;23.00;31.00;;;;;;5073190;28;19935;-47
2024/02/03 09:25:10;;;;;;;;;;;23.00;30.90;;;;;;5071792;28;19924;-46
2024/02/03 09:27:39;;;;;;;;;;;23.00;31.00;;;;;;5053504;28;20366;-49
2024/02/03 09:30:07;;;;;;;;;;;23.00;31.00;;;;;;5073251;28;20424;-50
2024/02/03 09:32:34;;;;;;;;;;;23.00;31.00;;;;;;5073136;28;20657;-47
2024/02/03 09:35:02;;;;;;;;;;;23.10;31.00;;;;;;5068407;28;19932;-52
2024/02/03 09:37:30;;;;;;;;;;;23.00;30.90;;;;;;5071975;28;19946;-53
2024/02/03 09:39:59;;;;;;;;;;;23.10;31.00;;;;;;5070108;28;19934;-51
2024/02/03 09:42:26;;;;;;;;;;;23.10;31.00;;;;;;5070299;28;20079;-50
2024/02/03 09:44:54;;;;;;;;;;;23.10;31.00;;;;;;5072074;28;19932;-50
2024/02/03 09:47:21;;;;;;;;;;;23.10;31.50;;;;;;5068943;28;20298;-52
2024/02/03 09:49:48;;;;;;;;;;;23.10;31.00;;;;;;5072300;28;19925;-47
2024/02/03 09:52:16;;;;;;;;;;;23.10;31.00;;;;;;5072732;28;19924;-52
2024/02/03 09:54:45;;;;;;;;;;;23.20;31.50;;;;;;5072721;28;19925;-51
2024/02/03 09:57:13;;;;;;;;;;;23.20;31.00;;;;;;5072936;28;20050;-50
2024/02/03 09:59:40;;;;;;;;;;;23.20;31.00;;;;;;5067992;28;19952;-49
2024/02/03 10:02:07;;;;;;;;;;;23.20;31.00;;;;;;5070451;28;19929;-48
2024/02/03 10:04:38;;;;;;;;;;;23.20;31.00;;;;;;5067963;28;19929;-49
2024/02/03 10:07:06;;;;;;;;;;;23.30;31.00;;;;;;5068898;28;20349;-46
2024/02/03 10:09:33;;;;;;;;;;;23.30;31.00;;;;;;5072416;28;20019;-52
2024/02/03 10:12:03;;;;;;;;;;;23.30;31.00;;;;;;5068817;28;19928;-48
2024/02/03 10:14:30;;;;;;;;;;;23.30;31.00;;;;;;5069043;28;19932;-47
2024/02/03 10:16:57;;;;;;;;;;;23.40;31.10;;;;;;5070835;28;19932;-51
2024/02/03 10:19:24;;;;;;;;;;;23.40;31.00;;;;;;5055083;28;19924;-52
2024/02/03 10:21:52;;;;;;;;;;;23.40;30.90;;;;;;5072803;28;19938;-47
2024/02/03 10:24:25;;;;;;;;;;;23.50;31.00;;;;;;5072895;28;20324;-49
2024/02/03 10:27:01;;;;;;;;;;;23.50;30.90;;;;;;5072853;28;19928;-47
2024/02/03 10:29:28;;;;;;;;;;;23.50;30.90;;;;;;5054965;28;19932;-47
2024/02/03 10:31:55;;;;;;;;;;;23.50;31.00;;;;;;5072437;28;19968;-51
2024/02/03 10:34:22;;;;;;;;;;;23.50;30.90;;;;;;5068979;28;19974;-51
2024/02/03 10:36:49;;;;;;;;;;;23.50;30.90;;;;;;5072587;28;19935;-53
2024/02/03 10:39:17;;;;;;;;;;;23.50;30.90;;;;;;5072898;28;19931;-52
2024/02/03 10:41:46;;;;;;;;;;;23.60;31.00;;;;;;5070733;28;19932;-50
2024/02/03 10:44:16;;;;;;;;;;;23.50;31.00;;;;;;5071402;28;19929;-52
2024/02/03 10:46:43;;;;;;;;;;;23.60;31.00;;;;;;5072519;28;19931;-51
2024/02/03 10:49:14;;;;;;;;;;;23.60;31.00;;;;;;5072835;28;20390;-48
2024/02/03 10:51:43;;;;;;;;;;;23.60;31.00;;;;;;5072995;28;20400;-48
2024/02/03 10:54:16;;;;;;;;;;;23.60;30.90;;;;;;5072792;28;19924;-47
2024/02/03 10:56:49;;;;;;;;;;;23.60;31.00;;;;;;5072454;28;19924;-46
2024/02/03 10:59:20;;;;;;;;;;;23.70;31.00;;;;;;5073015;28;20031;-47
2024/02/03 11:01:47;;;;;;;;;;;23.60;30.90;;;;;;5072643;28;20011;-53
2024/02/03 11:04:14;;;;;;;;;;;23.70;31.00;;;;;;5072564;28;19925;-52
2024/02/03 11:06:41;;;;;;;;;;;23.70;31.00;;;;;;5072359;28;19955;-49
2024/02/03 11:09:18;;;;;;;;;;;23.70;31.00;;;;;;5072797;28;20333;-52
2024/02/03 11:11:54;;;;;;;;;;;23.70;31.00;;;;;;5072554;28;20374;-53
2024/02/03 11:14:23;;;;;;;;;;;23.70;30.90;;;;;;5071999;28;20377;-53
2024/02/03 11:16:52;;;;;;;;;;;23.70;31.00;;;;;;5054980;28;19931;-54
2024/02/03 11:19:25;;;;;;;;;;;23.80;31.00;;;;;;5073962;28;19925;-51
2024/02/03 11:21:55;;;;;;;;;;;23.80;31.00;;;;;;5075883;28;19928;-48
2024/02/03 11:24:23;;;;;;;;;;;23.80;31.00;;;;;;5075826;28;20375;-52
2024/02/03 11:26:54;;;;;;;;;;;23.90;31.00;;;;;;5075678;28;19924;-53
2024/02/03 11:29:21;;;;;;;;;;;23.90;31.00;;;;;;5075783;28;20370;-52
2024/02/03 11:31:55;;;;;;;;;;;23.90;30.90;;;;;;5075926;28;19924;-51
2024/02/03 11:34:23;;;;;;;;;;;24.00;30.90;;;;;;5075546;28;20388;-51
2024/02/03 11:36:51;;;;;;;;;;;23.90;30.90;;;;;;5075703;28;19924;-51
2024/02/03 11:39:35;;;;;;;;;;;24.00;30.90;;;;;;5076082;28;19924;-53
2024/02/03 11:42:02;;;;;;;;;;;24.00;30.90;;;;;;5075503;28;19928;-47
2024/02/03 11:44:38;;;;;;;;;;;24.00;30.90;;;;;;5075398;28;19935;-53
2024/02/03 11:47:05;;;;;;;;;;;24.00;30.90;;;;;;5075642;28;19928;-48
2024/02/03 11:49:33;;;;;;;;;;;24.00;30.80;;;;;;5075735;28;19924;-50
2024/02/03 11:52:00;;;;;;;;;;;24.00;30.80;;;;;;5075844;28;19954;-52
2024/02/03 11:54:27;;;;;;;;;;;24.00;30.80;;;;;;5057442;28;20378;-52
2024/02/03 11:56:54;;;;;;;;;;;24.10;30.90;;;;;;5075288;28;19925;-51
2024/02/03 11:59:28;;;;;;;;;;;24.10;30.80;;;;;;5075420;28;19924;-53
2024/02/03 12:01:55;;;;;;;;;;;24.10;30.80;;;;;;5075618;28;19924;-53
2024/02/03 12:04:23;;;;;;;;;;;24.10;30.80;;;;;;5075141;28;19929;-50
2024/02/03 12:06:50;;;;;;;;;;;24.10;30.80;;;;;;5075336;28;19970;-53
2024/02/03 12:09:18;;;;;;;;;;;24.10;30.80;;;;;;5075342;28;19924;-52
2024/02/03 12:11:47;;;;;;;;;;;24.10;30.70;;;;;;5075505;28;19925;-53
2024/02/03 12:14:14;;;;;;;;;;;24.10;30.70;;;;;;5074831;28;20381;-53
2024/02/03 12:16:48;;;;;;;;;;;24.10;30.70;;;;;;5075226;28;19935;-51
2024/02/03 12:19:15;;;;;;;;;;;24.10;30.60;;;;;;5075348;28;19931;-53
2024/02/03 12:21:45;;;;;;;;;;;24.10;30.60;;;;;;5074883;28;19978;-52
2024/02/03 12:24:12;;;;;;;;;;;24.10;30.60;;;;;;5074877;28;19928;-53
2024/02/03 12:26:40;;;;;;;;;;;24.10;30.60;;;;;;5073784;28;19928;-50
2024/02/03 12:29:07;;;;;;;;;;;24.10;30.60;;;;;;5057366;28;19929;-53
2024/02/03 12:31:34;;;;;;;;;;;24.10;30.60;;;;;;5074514;28;19924;-52
2024/02/03 12:34:01;;;;;;;;;;;24.20;30.60;;;;;;5074955;28;19924;-52
2024/02/03 12:36:28;;;;;;;;;;;24.20;30.60;;;;;;5074578;28;20435;-53
2024/02/03 12:38:58;;;;;;;;;;;24.20;30.60;;;;;;5074921;28;20409;-53
2024/02/03 12:41:26;;;;;;;;;;;24.20;30.50;;;;;;5063179;28;19925;-58
2024/02/03 12:43:52;;;;;;;;;;;24.20;30.60;;;;;;5054640;28;19936;-54
2024/02/03 12:46:20;;;;;;;;;;;24.20;30.50;;;;;;5054503;28;19928;-58
2024/02/03 12:48:47;;;;;;;;;;;24.20;30.50;;;;;;5054363;28;19925;-56
2024/02/03 12:51:16;;;;;;;;;;;24.20;30.50;;;;;;5054399;28;20366;-61
2024/02/03 12:53:44;;;;;;;;;;;24.30;30.50;;;;;;5054140;28;20108;-66
2024/02/03 12:56:11;;;;;;;;;;;24.20;30.40;;;;;;5053949;28;19970;-53
2024/02/03 12:58:39;;;;;;;;;;;24.20;30.40;;;;;;5054343;28;20436;-53
2024/02/03 13:01:06;;;;;;;;;;;24.20;30.40;;;;;;5053966;28;19929;-61
2024/02/03 13:03:34;;;;;;;;;;;24.20;30.40;;;;;;5056337;28;19925;-57
2024/02/03 13:06:01;;;;;;;;;;;24.20;30.40;;;;;;5074160;28;19931;-50
2024/02/03 13:08:29;;;;;;;;;;;24.20;30.40;;;;;;5074211;28;19928;-48
2024/02/03 13:10:56;;;;;;;;;;;24.20;30.40;;;;;;5074074;28;20370;-45
2024/02/03 13:13:23;;;;;;;;;;;24.20;30.40;;;;;;5073889;28;19932;-51
2024/02/03 13:15:50;;;;;;;;;;;24.20;30.40;;;;;;5056273;28;19931;-47
2024/02/03 13:18:17;;;;;;;;;;;24.20;30.30;;;;;;5073912;28;20386;-47
2024/02/03 13:20:45;;;;;;;;;;;24.20;30.30;;;;;;5074191;28;19928;-47
2024/02/03 13:23:12;;;;;;;;;;;24.20;30.30;;;;;;5073324;28;19929;-47
2024/02/03 13:25:39;;;;;;;;;;;24.20;30.30;;;;;;5074096;28;19924;-46
2024/02/03 13:28:07;;;;;;;;;;;24.20;30.30;;;;;;5073558;28;20289;-52
2024/02/03 13:30:34;;;;;;;;;;;24.20;30.20;;;;;;5073554;28;19924;-46
2024/02/03 13:33:02;;;;;;;;;;;24.20;30.20;;;;;;5073572;28;19924;-48
2024/02/03 13:35:30;;;;;;;;;;;24.20;30.20;;;;;;5073633;28;20378;-46
2024/02/03 13:37:58;;;;;;;;;;;24.20;30.20;;;;;;5073854;28;20282;-55
2024/02/03 13:40:25;;;;;;;;;;;24.20;30.20;;;;;;5073550;28;20378;-52
2024/02/03 13:42:52;;;;;;;;;;;24.20;30.20;;;;;;5072948;28;19975;-54
2024/02/03 13:45:20;;;;;;;;;;;24.20;30.20;;;;;;5073261;28;19932;-54
2024/02/03 13:47:49;;;;;;;;;;;24.20;30.10;;;;;;5073348;28;20385;-46
2024/02/03 13:50:18;;;;;;;;;;;24.20;30.10;;;;;;5073359;28;19929;-48
2024/02/03 13:52:45;;;;;;;;;;;24.20;30.10;;;;;;5055579;28;19931;-51
2024/02/03 13:55:13;;;;;;;;;;;24.20;30.10;;;;;;5074042;28;19963;-48
2024/02/03 13:57:40;;;;;;;;;;;24.20;30.10;;;;;;5073520;28;19932;-51
2024/02/03 14:00:07;;;;;;;;;;;24.20;30.10;;;;;;5073615;28;20316;-51
2024/02/03 14:02:35;;;;;;;;;;;24.20;30.10;;;;;;5069197;28;19928;-46
2024/02/03 14:05:04;;;;;;;;;;;24.20;30.10;;;;;;5062353;28;19947;-49
2024/02/03 14:07:32;;;;;;;;;;;24.20;30.10;;;;;;5068349;28;20317;-51
2024/02/03 14:10:00;;;;;;;;;;;24.20;30.10;;;;;;5072313;28;20284;-50
2024/02/03 14:12:27;;;;;;;;;;;24.20;30.10;;;;;;5072865;28;19925;-52
2024/02/03 14:14:54;;;;;;;;;;;24.10;30.10;;;;;;5073178;28;20285;-47
2024/02/03 14:17:21;;;;;;;;;;;24.20;30.10;;;;;;5073438;28;19950;-48